Time;durP1;ratioP1;P1;durP2;ratioP2;P2;SDS_P1;SDS_P2;PMS_P1;PMS_P2;Temp;Humidity;BMP_temperature;BMP_pressure;BME280_temperature;BME280_humidity;BME280_pressure;Samples;Min_cycle;Max_cycle;Signal;HPM_P1;HPM_P2
2022/01/16 00:00:22;;;;;;;96.67;31.37;;;2.90;99.90;;;;;;5109247;27;20224;-79
2022/01/16 00:05:30;;;;;;;89.17;29.10;;;2.80;99.90;;;;;;5117466;27;20218;-79
2022/01/16 00:07:58;;;;;;;106.00;31.30;;;2.80;99.90;;;;;;5108499;27;20631;-79
2022/01/16 00:10:28;;;;;;;99.67;31.63;;;2.80;99.90;;;;;;5105357;27;20234;-80
2022/01/16 00:12:59;;;;;;;95.50;30.63;;;2.80;99.90;;;;;;5113410;27;20214;-80
2022/01/16 00:15:26;;;;;;;100.43;31.13;;;2.80;99.90;;;;;;5106137;27;20310;-80
2022/01/16 00:18:08;;;;;;;105.33;31.03;;;2.70;99.90;;;;;;5101122;28;20233;-80
2022/01/16 00:20:36;;;;;;;104.60;31.23;;;2.80;99.90;;;;;;5088714;28;20302;-80
2022/01/16 00:23:09;;;;;;;108.50;31.83;;;2.80;99.90;;;;;;5100238;27;20283;-80
2022/01/16 00:25:36;;;;;;;96.30;29.93;;;2.80;99.90;;;;;;5109805;27;20215;-80
2022/01/16 00:28:03;;;;;;;93.67;30.47;;;2.80;99.90;;;;;;5106909;27;20204;-79
2022/01/16 00:30:30;;;;;;;96.73;31.87;;;2.70;99.90;;;;;;5111836;27;20897;-79
2022/01/16 00:33:00;;;;;;;99.67;29.83;;;2.70;99.90;;;;;;5108606;27;20330;-80
2022/01/16 00:35:27;;;;;;;94.40;29.87;;;2.70;99.90;;;;;;5112958;27;20324;-79
2022/01/16 00:37:54;;;;;;;93.73;27.93;;;2.60;99.90;;;;;;5111627;27;20285;-79
2022/01/16 00:40:21;;;;;;;109.80;34.53;;;2.60;99.90;;;;;;5112152;27;20723;-79
2022/01/16 00:42:47;;;;;;;100.93;31.50;;;2.50;99.90;;;;;;5109626;27;20309;-79
2022/01/16 00:45:14;;;;;;;116.23;31.50;;;2.60;99.90;;;;;;5107409;27;20212;-80
2022/01/16 00:47:41;;;;;;;116.00;31.47;;;2.60;99.90;;;;;;5117239;27;20221;-80
2022/01/16 00:50:08;;;;;;;99.10;32.23;;;2.70;99.90;;;;;;5112789;27;20205;-80
2022/01/16 00:52:35;;;;;;;115.60;32.63;;;2.70;99.90;;;;;;5108799;28;20209;-80
2022/01/16 00:55:03;;;;;;;98.37;30.30;;;2.80;99.90;;;;;;5112492;27;20665;-80
2022/01/16 00:57:31;;;;;;;103.43;29.73;;;2.70;99.90;;;;;;5110247;27;20268;-80
2022/01/16 00:59:57;;;;;;;105.13;31.13;;;2.80;99.90;;;;;;5109482;27;20747;-80
2022/01/16 01:02:25;;;;;;;101.10;32.73;;;2.70;99.90;;;;;;5109087;27;20224;-80
2022/01/16 01:04:52;;;;;;;100.90;30.60;;;2.70;99.90;;;;;;5099878;27;20289;-80
2022/01/16 01:07:19;;;;;;;108.27;31.20;;;2.70;99.90;;;;;;5108159;27;20241;-81
2022/01/16 01:09:45;;;;;;;107.67;31.03;;;2.70;99.90;;;;;;5111318;27;20243;-80
2022/01/16 01:12:23;;;;;;;105.77;32.43;;;2.60;99.90;;;;;;5114872;27;20668;-80
2022/01/16 01:15:06;;;;;;;98.33;30.90;;;2.60;99.90;;;;;;5111520;27;20210;-80
2022/01/16 01:17:42;;;;;;;101.63;31.73;;;2.60;99.90;;;;;;5104566;27;20746;-81
2022/01/16 01:20:11;;;;;;;115.03;33.33;;;2.70;99.90;;;;;;5114381;27;20632;-80
2022/01/16 01:22:38;;;;;;;94.17;31.83;;;2.70;99.90;;;;;;5109784;27;20434;-80
2022/01/16 01:25:05;;;;;;;104.23;33.00;;;2.70;99.90;;;;;;5103398;27;20242;-81
2022/01/16 01:27:33;;;;;;;97.03;32.53;;;2.60;99.90;;;;;;5109760;27;20255;-80
2022/01/16 01:30:05;;;;;;;106.00;32.83;;;2.70;99.90;;;;;;5113543;27;20293;-80
2022/01/16 01:32:34;;;;;;;94.53;32.53;;;2.50;99.90;;;;;;5093430;27;20232;-80
2022/01/16 01:35:00;;;;;;;91.97;30.43;;;2.50;99.90;;;;;;5098930;27;20642;-80
2022/01/16 01:37:27;;;;;;;92.47;30.83;;;2.40;99.90;;;;;;5107829;27;20225;-81
2022/01/16 01:39:54;;;;;;;95.03;30.47;;;2.50;99.90;;;;;;5095418;27;20569;-80
2022/01/16 01:42:22;;;;;;;81.97;28.80;;;2.50;99.90;;;;;;5102676;27;20219;-80
2022/01/16 01:53:05;;;;;;;98.87;30.70;;;2.50;99.90;;;;;;5114041;27;20284;-80
2022/01/16 01:55:32;;;;;;;89.90;29.37;;;2.60;99.90;;;;;;5109642;27;20217;-80
2022/01/16 01:57:59;;;;;;;100.20;31.07;;;2.60;99.90;;;;;;5110506;27;20614;-80
2022/01/16 02:00:26;;;;;;;89.07;29.63;;;2.70;99.90;;;;;;5104979;28;20641;-81
2022/01/16 02:03:13;;;;;;;100.87;30.47;;;2.70;99.90;;;;;;5115283;27;20308;-80
2022/01/16 02:05:44;;;;;;;99.83;32.27;;;2.80;99.90;;;;;;5106959;27;20286;-79
2022/01/16 02:08:11;;;;;;;94.73;30.33;;;2.80;99.90;;;;;;5086418;28;20562;-80
2022/01/16 02:10:40;;;;;;;91.30;29.67;;;2.80;99.90;;;;;;5109764;27;20238;-79
2022/01/16 02:13:11;;;;;;;102.03;29.47;;;2.80;99.90;;;;;;5087552;28;20544;-80
2022/01/16 02:34:42;;;;;;;102.53;32.00;;;2.90;99.90;;;;;;5120828;27;20249;-80
2022/01/16 02:37:13;;;;;;;93.53;30.30;;;2.90;99.90;;;;;;5110746;27;20705;-81
2022/01/16 02:39:42;;;;;;;93.70;31.40;;;2.90;99.90;;;;;;5108785;27;20327;-81
2022/01/16 02:42:11;;;;;;;99.60;29.43;;;2.90;99.90;;;;;;5109218;27;20271;-81
2022/01/16 02:45:28;;;;;;;104.17;31.20;;;2.90;99.90;;;;;;5107542;27;20214;-81
2022/01/16 02:47:28;;;;;;;92.90;29.83;;;2.90;99.90;;;;;;5096701;27;20327;-81
2022/01/16 02:50:14;;;;;;;100.73;30.50;;;2.90;99.90;;;;;;5105545;28;20212;-81
2022/01/16 02:52:43;;;;;;;97.00;29.73;;;2.90;99.90;;;;;;5110547;27;20215;-81
2022/01/16 02:55:13;;;;;;;96.67;29.70;;;2.80;99.90;;;;;;5108319;28;20220;-81
2022/01/16 02:57:40;;;;;;;109.60;31.37;;;2.90;99.90;;;;;;5097660;27;20286;-81
2022/01/16 03:00:07;;;;;;;108.37;30.50;;;2.80;99.90;;;;;;5112010;27;20732;-81
2022/01/16 03:02:34;;;;;;;98.03;30.33;;;2.90;99.90;;;;;;5112255;27;20268;-80
2022/01/16 03:05:01;;;;;;;91.00;30.90;;;2.90;99.90;;;;;;5106479;28;20567;-80
2022/01/16 03:07:28;;;;;;;103.93;31.00;;;2.80;99.90;;;;;;5110599;27;20207;-80
2022/01/16 03:12:41;;;;;;;99.20;29.27;;;3.00;99.90;;;;;;5107727;27;20207;-80
2022/01/16 03:15:07;;;;;;;104.33;32.13;;;3.00;99.90;;;;;;5112157;28;20655;-79
2022/01/16 03:17:40;;;;;;;95.50;30.97;;;3.00;99.90;;;;;;5110860;28;20590;-79
2022/01/16 03:22:54;;;;;;;94.77;30.37;;;3.00;99.90;;;;;;5116298;27;20588;-80
2022/01/16 03:25:21;;;;;;;103.37;31.67;;;3.00;99.90;;;;;;5098183;28;20213;-80
2022/01/16 03:27:47;;;;;;;94.93;30.63;;;3.10;99.90;;;;;;5089329;28;20223;-79
2022/01/16 03:30:14;;;;;;;106.20;31.07;;;3.10;99.90;;;;;;5104172;27;20213;-80
2022/01/16 03:32:41;;;;;;;92.63;29.93;;;3.10;99.90;;;;;;5104276;27;20216;-80
2022/01/16 03:35:08;;;;;;;104.93;32.33;;;3.10;99.90;;;;;;5109399;27;20225;-80
2022/01/16 03:37:35;;;;;;;94.27;29.90;;;3.10;99.90;;;;;;5119908;27;20203;-79
2022/01/16 03:40:04;;;;;;;108.73;29.47;;;3.10;99.90;;;;;;5116853;27;20759;-80
2022/01/16 03:42:33;;;;;;;108.70;31.70;;;3.10;99.90;;;;;;5112573;27;20260;-80
2022/01/16 03:45:01;;;;;;;98.37;30.23;;;3.10;99.90;;;;;;5107477;27;20207;-80
2022/01/16 03:47:28;;;;;;;99.40;28.57;;;3.10;99.90;;;;;;5109284;27;20247;-80
2022/01/16 03:49:55;;;;;;;109.00;31.03;;;3.20;99.90;;;;;;5115780;27;20199;-80
2022/01/16 03:52:21;;;;;;;116.03;30.77;;;3.20;99.90;;;;;;5105254;27;20546;-80
2022/01/16 03:54:48;;;;;;;106.10;30.87;;;3.20;99.90;;;;;;5097604;28;20241;-81
2022/01/16 03:57:15;;;;;;;113.53;32.33;;;3.20;99.90;;;;;;5100328;27;20210;-80
2022/01/16 03:59:42;;;;;;;107.53;30.13;;;3.20;99.90;;;;;;5097652;27;20725;-81
2022/01/16 04:02:09;;;;;;;103.63;31.37;;;3.20;99.90;;;;;;5109710;27;20231;-81
2022/01/16 04:04:36;;;;;;;113.93;32.43;;;3.20;99.90;;;;;;5092363;28;20207;-81
2022/01/16 04:07:03;;;;;;;113.73;31.10;;;3.30;99.90;;;;;;5114659;27;20741;-81
2022/01/16 04:09:30;;;;;;;109.63;32.87;;;3.30;99.90;;;;;;5108057;27;20211;-80
2022/01/16 04:11:58;;;;;;;102.93;31.00;;;3.30;99.90;;;;;;5101744;27;20230;-80
2022/01/16 04:17:18;;;;;;;107.20;29.77;;;3.30;99.90;;;;;;5111732;27;20322;-81
2022/01/16 04:19:45;;;;;;;110.60;30.80;;;3.30;99.90;;;;;;5108467;27;20202;-80
2022/01/16 04:22:14;;;;;;;102.33;30.47;;;3.30;99.90;;;;;;5113880;27;20231;-80
2022/01/16 04:24:41;;;;;;;108.87;32.37;;;3.40;99.90;;;;;;5094983;27;20217;-79
2022/01/16 04:27:12;;;;;;;99.07;28.97;;;3.40;99.90;;;;;;5108121;27;20207;-80
2022/01/16 04:29:40;;;;;;;107.03;31.10;;;3.40;99.90;;;;;;5112876;27;20206;-79
2022/01/16 04:32:08;;;;;;;103.27;30.90;;;3.40;99.90;;;;;;5111337;27;20276;-80
2022/01/16 04:34:35;;;;;;;101.40;31.37;;;3.30;99.90;;;;;;5109932;27;20207;-81
2022/01/16 04:37:02;;;;;;;111.90;31.20;;;3.30;99.90;;;;;;5086254;28;20202;-80
2022/01/16 04:39:34;;;;;;;111.53;31.13;;;3.30;99.90;;;;;;5111366;27;20230;-80
2022/01/16 04:44:49;;;;;;;104.53;30.17;;;3.30;99.90;;;;;;5099103;27;20210;-80
2022/01/16 04:47:16;;;;;;;102.17;29.90;;;3.30;99.90;;;;;;5112521;27;20219;-80
2022/01/16 04:49:43;;;;;;;111.27;30.63;;;3.30;99.90;;;;;;5112325;27;20555;-80
2022/01/16 04:52:10;;;;;;;93.03;30.97;;;3.30;99.90;;;;;;5110301;27;20645;-80
2022/01/16 04:54:37;;;;;;;93.47;29.57;;;3.30;99.90;;;;;;5109680;27;20203;-80
2022/01/16 04:57:04;;;;;;;98.13;29.57;;;3.40;99.90;;;;;;5098294;28;20286;-80
2022/01/16 04:59:30;;;;;;;95.03;31.73;;;3.40;99.90;;;;;;5109640;27;20691;-80
2022/01/16 05:01:57;;;;;;;102.67;30.60;;;3.40;99.90;;;;;;5110293;27;20700;-80
2022/01/16 05:04:24;;;;;;;95.53;29.47;;;3.40;99.90;;;;;;5097100;27;20288;-80
2022/01/16 05:06:51;;;;;;;88.60;30.90;;;3.40;99.90;;;;;;5097829;27;20206;-80
2022/01/16 05:09:17;;;;;;;92.87;30.30;;;3.40;99.90;;;;;;5107692;27;20210;-80
2022/01/16 05:11:45;;;;;;;94.40;30.77;;;3.40;99.90;;;;;;5109289;27;20210;-80
2022/01/16 05:16:57;;;;;;;109.17;30.60;;;3.40;99.90;;;;;;5105033;27;20238;-81
2022/01/16 05:19:24;;;;;;;95.87;30.90;;;3.40;99.90;;;;;;5109181;27;20221;-80
2022/01/16 05:21:51;;;;;;;97.27;30.77;;;3.40;99.90;;;;;;5097960;27;20230;-81
2022/01/16 05:24:17;;;;;;;88.17;30.20;;;3.50;99.90;;;;;;5112379;27;20289;-80
2022/01/16 05:26:44;;;;;;;106.63;31.07;;;3.40;99.90;;;;;;5087230;27;20730;-81
2022/01/16 05:29:12;;;;;;;96.83;30.90;;;3.40;99.90;;;;;;5113635;27;20198;-81
2022/01/16 05:31:44;;;;;;;99.47;29.70;;;3.50;99.90;;;;;;5106171;27;20225;-80
2022/01/16 05:34:14;;;;;;;98.00;31.70;;;3.50;99.90;;;;;;5090536;28;20689;-81
2022/01/16 05:36:41;;;;;;;98.30;31.20;;;3.50;99.90;;;;;;5112918;27;20293;-80
2022/01/16 05:39:09;;;;;;;107.83;32.30;;;3.50;99.90;;;;;;5109972;27;20241;-80
2022/01/16 05:41:36;;;;;;;101.73;31.00;;;3.50;99.90;;;;;;5109009;27;20290;-80
2022/01/16 05:44:03;;;;;;;100.37;30.23;;;3.50;99.90;;;;;;5112833;27;20724;-81
2022/01/16 05:46:29;;;;;;;109.07;31.53;;;3.50;99.90;;;;;;5108426;27;20203;-81
2022/01/16 05:48:56;;;;;;;104.90;32.17;;;3.50;99.90;;;;;;5107525;28;20187;-81
2022/01/16 05:51:23;;;;;;;110.10;33.20;;;3.50;99.90;;;;;;5107980;27;20557;-81
2022/01/16 05:53:51;;;;;;;116.00;33.73;;;3.50;99.90;;;;;;5111207;27;20210;-80
2022/01/16 05:56:18;;;;;;;101.03;31.63;;;3.50;99.90;;;;;;5109480;27;20250;-80
2022/01/16 05:58:44;;;;;;;106.83;33.80;;;3.50;99.90;;;;;;5108907;27;20250;-80
2022/01/16 06:01:11;;;;;;;113.83;34.07;;;3.50;99.90;;;;;;5112062;27;20203;-80
2022/01/16 06:03:38;;;;;;;110.33;35.30;;;3.50;99.90;;;;;;5124653;27;20226;-80
2022/01/16 06:06:05;;;;;;;114.77;34.67;;;3.40;99.90;;;;;;5110123;27;20286;-80
2022/01/16 06:08:32;;;;;;;100.40;33.80;;;3.50;99.90;;;;;;5092953;28;20639;-81
2022/01/16 06:10:58;;;;;;;113.17;34.70;;;3.50;99.90;;;;;;5110026;27;20285;-80
2022/01/16 06:13:25;;;;;;;99.00;34.07;;;3.50;99.90;;;;;;5088231;28;20264;-80
2022/01/16 06:15:52;;;;;;;107.70;34.63;;;3.50;99.90;;;;;;5106151;27;20227;-81
2022/01/16 06:18:19;;;;;;;107.63;33.50;;;3.50;99.90;;;;;;5111000;27;20658;-81
2022/01/16 06:20:47;;;;;;;111.30;34.63;;;3.50;99.90;;;;;;5096088;28;20203;-80
2022/01/16 06:23:14;;;;;;;106.87;36.47;;;3.50;99.90;;;;;;5105916;27;20284;-80
2022/01/16 06:25:41;;;;;;;112.93;35.77;;;3.50;99.90;;;;;;5093757;27;20303;-80
2022/01/16 06:28:08;;;;;;;124.93;36.13;;;3.60;99.90;;;;;;5108650;27;20226;-81
2022/01/16 06:30:35;;;;;;;117.27;36.87;;;3.60;99.90;;;;;;5107351;27;20264;-80
2022/01/16 06:33:05;;;;;;;110.63;38.23;;;3.60;99.90;;;;;;5107874;27;20218;-80
2022/01/16 06:35:32;;;;;;;121.13;38.23;;;3.60;99.90;;;;;;5093517;28;20489;-81
2022/01/16 06:37:59;;;;;;;118.60;38.47;;;3.60;99.90;;;;;;5111327;27;20293;-80
2022/01/16 06:40:26;;;;;;;122.77;39.50;;;3.60;99.90;;;;;;5104249;27;20255;-80
2022/01/16 06:42:52;;;;;;;116.20;38.33;;;3.60;99.90;;;;;;5108132;27;20577;-80
2022/01/16 06:45:19;;;;;;;121.03;38.60;;;3.70;99.90;;;;;;5106107;27;20206;-80
2022/01/16 06:47:46;;;;;;;117.03;39.03;;;3.70;99.90;;;;;;5107275;27;20215;-81
2022/01/16 06:50:13;;;;;;;123.33;40.57;;;3.60;99.90;;;;;;5089583;28;20569;-80
2022/01/16 06:52:40;;;;;;;135.77;40.70;;;3.70;99.90;;;;;;5104604;27;20638;-79
2022/01/16 06:55:07;;;;;;;131.67;41.10;;;3.70;99.90;;;;;;5107954;27;20277;-80
2022/01/16 06:57:34;;;;;;;136.77;42.40;;;3.70;99.90;;;;;;5100252;28;20311;-81
2022/01/16 07:00:04;;;;;;;125.80;41.70;;;3.70;99.90;;;;;;5106760;27;20405;-80
2022/01/16 07:02:30;;;;;;;131.23;41.17;;;3.70;99.90;;;;;;5089938;28;20303;-80
2022/01/16 07:04:57;;;;;;;118.60;40.97;;;3.70;99.90;;;;;;5108981;28;20191;-80
2022/01/16 07:07:24;;;;;;;129.20;39.93;;;3.80;99.90;;;;;;5083708;28;20310;-80
2022/01/16 07:09:51;;;;;;;120.67;39.23;;;3.80;99.90;;;;;;5097883;28;20199;-82
2022/01/16 07:12:17;;;;;;;121.43;42.40;;;3.80;99.90;;;;;;5103946;28;20200;-80
2022/01/16 07:14:44;;;;;;;110.03;41.67;;;3.70;99.90;;;;;;5104790;28;20209;-81
2022/01/16 07:17:11;;;;;;;129.43;42.47;;;3.70;99.90;;;;;;5110412;28;20231;-80
2022/01/16 07:19:38;;;;;;;124.77;41.60;;;3.60;99.90;;;;;;5108309;28;20199;-81
2022/01/16 07:22:05;;;;;;;119.67;40.90;;;3.70;99.90;;;;;;5096954;28;20217;-80
2022/01/16 07:24:32;;;;;;;127.53;43.40;;;3.70;99.90;;;;;;5102944;28;20210;-81
2022/01/16 07:27:00;;;;;;;124.23;43.07;;;3.70;99.90;;;;;;5107120;28;20643;-82
2022/01/16 07:29:30;;;;;;;122.17;43.93;;;3.70;99.90;;;;;;5104532;28;20238;-81
2022/01/16 07:31:57;;;;;;;124.13;41.07;;;3.70;99.90;;;;;;5105834;28;20218;-80
2022/01/16 07:34:23;;;;;;;117.00;43.17;;;3.70;99.90;;;;;;5104784;28;20722;-80
2022/01/16 07:36:50;;;;;;;117.47;41.53;;;3.70;99.90;;;;;;5105861;28;20230;-81
2022/01/16 07:39:17;;;;;;;118.13;42.20;;;3.70;99.90;;;;;;5107684;28;20283;-80
2022/01/16 07:41:44;;;;;;;122.93;43.47;;;3.80;99.90;;;;;;5114353;28;20425;-81
2022/01/16 07:44:10;;;;;;;137.57;43.60;;;3.80;99.90;;;;;;5096327;28;20307;-81
2022/01/16 07:46:37;;;;;;;124.00;43.17;;;3.80;99.90;;;;;;5096119;28;20206;-80
2022/01/16 07:49:04;;;;;;;127.57;42.90;;;3.80;99.90;;;;;;5086264;28;20465;-80
2022/01/16 07:51:32;;;;;;;120.27;41.80;;;3.70;99.90;;;;;;5092484;28;20513;-81
2022/01/16 07:53:59;;;;;;;131.47;43.53;;;3.80;99.90;;;;;;5103085;28;20267;-80
2022/01/16 07:56:26;;;;;;;110.30;42.57;;;3.80;99.90;;;;;;5095745;28;20203;-81
2022/01/16 07:58:53;;;;;;;109.43;41.97;;;3.80;99.90;;;;;;5112401;28;20203;-81
2022/01/16 08:01:20;;;;;;;115.40;41.97;;;3.80;99.90;;;;;;5100533;28;20196;-80
2022/01/16 08:03:47;;;;;;;117.90;40.20;;;3.80;99.90;;;;;;5108830;28;20568;-81
2022/01/16 08:06:16;;;;;;;119.50;42.60;;;3.80;99.90;;;;;;5089916;28;20199;-80
2022/01/16 08:08:43;;;;;;;120.27;44.33;;;3.80;99.90;;;;;;5111493;27;20565;-80
2022/01/16 08:11:10;;;;;;;114.47;42.73;;;3.70;99.90;;;;;;5106635;27;20309;-80
2022/01/16 08:13:37;;;;;;;118.23;42.43;;;3.70;99.90;;;;;;5110600;27;20256;-81
2022/01/16 08:16:05;;;;;;;112.50;41.87;;;3.70;99.90;;;;;;5115905;27;20317;-80
2022/01/16 08:18:32;;;;;;;118.23;42.37;;;3.70;99.90;;;;;;5110250;27;20951;-81
2022/01/16 08:20:59;;;;;;;116.90;44.70;;;3.70;99.90;;;;;;5112362;27;20632;-80
2022/01/16 08:23:26;;;;;;;115.97;42.67;;;3.70;99.90;;;;;;5111993;27;20218;-81
2022/01/16 08:25:53;;;;;;;114.73;42.77;;;3.70;99.90;;;;;;5096321;27;20207;-82
2022/01/16 08:28:20;;;;;;;115.03;42.30;;;3.70;99.90;;;;;;5108981;27;20234;-80
2022/01/16 08:30:46;;;;;;;120.17;45.10;;;3.80;99.90;;;;;;5114230;27;20719;-80
2022/01/16 08:33:13;;;;;;;111.57;43.53;;;3.80;99.90;;;;;;5109978;27;20518;-81
2022/01/16 08:35:40;;;;;;;124.63;44.33;;;3.80;99.90;;;;;;5107359;27;20201;-81
2022/01/16 08:38:07;;;;;;;109.57;42.13;;;4.00;99.90;;;;;;5106688;27;20235;-82
2022/01/16 08:40:34;;;;;;;114.90;41.77;;;4.00;99.90;;;;;;5111143;27;20298;-81
2022/01/16 08:43:08;;;;;;;114.73;41.57;;;4.10;99.90;;;;;;5112786;27;20250;-82
2022/01/16 08:45:40;;;;;;;105.80;40.63;;;4.10;99.90;;;;;;5109194;27;20744;-80
2022/01/16 08:48:08;;;;;;;109.07;41.53;;;4.10;99.90;;;;;;5090240;28;20230;-81
2022/01/16 08:50:37;;;;;;;102.40;40.43;;;4.20;99.90;;;;;;5110051;27;20631;-82
2022/01/16 08:53:04;;;;;;;96.03;39.83;;;4.30;99.90;;;;;;5109587;27;20305;-81
2022/01/16 08:55:33;;;;;;;100.10;40.83;;;4.30;99.90;;;;;;5111227;27;20297;-81
2022/01/16 08:58:00;;;;;;;97.37;39.57;;;4.40;99.90;;;;;;5112589;27;20291;-81
2022/01/16 09:00:31;;;;;;;93.90;37.80;;;4.40;99.90;;;;;;5091052;28;20192;-83
2022/01/16 09:02:58;;;;;;;90.50;38.00;;;4.40;99.90;;;;;;5093067;27;20227;-81
2022/01/16 09:05:27;;;;;;;84.93;36.70;;;4.40;99.90;;;;;;5108358;28;20292;-82
2022/01/16 09:07:54;;;;;;;79.40;35.33;;;4.50;99.90;;;;;;5109149;28;20670;-81
2022/01/16 09:10:21;;;;;;;81.23;35.10;;;4.50;99.90;;;;;;5109522;27;20799;-82
2022/01/16 09:12:49;;;;;;;82.43;35.77;;;4.50;99.90;;;;;;5110693;27;20623;-81
2022/01/16 09:15:15;;;;;;;78.20;33.23;;;4.60;99.90;;;;;;5109535;28;20205;-82
2022/01/16 09:17:42;;;;;;;71.27;34.23;;;4.60;99.90;;;;;;5108401;27;20254;-81
2022/01/16 09:20:13;;;;;;;73.63;33.00;;;4.70;99.90;;;;;;5115855;27;20539;-83
2022/01/16 09:22:43;;;;;;;70.03;33.37;;;4.80;99.90;;;;;;5118705;27;20203;-81
2022/01/16 09:25:14;;;;;;;76.27;32.43;;;4.70;99.90;;;;;;5092647;28;20207;-81
2022/01/16 09:27:41;;;;;;;61.80;30.30;;;4.70;99.90;;;;;;5107889;27;20196;-81
2022/01/16 09:30:10;;;;;;;62.67;30.47;;;4.80;99.90;;;;;;5108322;27;20290;-83
2022/01/16 09:32:38;;;;;;;65.83;31.00;;;4.90;99.90;;;;;;5109166;27;20230;-81
2022/01/16 09:35:07;;;;;;;58.70;29.40;;;4.90;99.90;;;;;;5103758;28;20218;-82
2022/01/16 09:37:34;;;;;;;60.90;28.73;;;4.90;99.90;;;;;;5108417;27;20289;-82
2022/01/16 09:40:01;;;;;;;57.13;28.87;;;5.00;99.90;;;;;;5086617;28;20451;-81
2022/01/16 09:42:28;;;;;;;54.00;27.10;;;5.00;99.90;;;;;;5091745;28;20207;-81
2022/01/16 09:44:55;;;;;;;60.47;28.17;;;5.00;99.90;;;;;;5077303;28;20325;-81
2022/01/16 09:47:22;;;;;;;58.07;28.53;;;5.00;99.90;;;;;;5091286;28;20308;-83
2022/01/16 09:49:49;;;;;;;60.23;27.03;;;5.10;99.90;;;;;;5091494;28;20265;-81
2022/01/16 09:52:17;;;;;;;58.87;27.33;;;5.10;99.90;;;;;;5085152;28;20190;-81
2022/01/16 09:54:44;;;;;;;53.50;27.50;;;5.10;99.90;;;;;;5089283;28;20207;-82
2022/01/16 09:57:12;;;;;;;59.77;28.10;;;5.10;99.90;;;;;;5086089;28;20640;-80
2022/01/16 09:59:39;;;;;;;59.27;27.30;;;5.10;99.90;;;;;;5084031;28;20293;-82
2022/01/16 10:02:06;;;;;;;50.17;25.90;;;5.20;99.90;;;;;;5090416;28;20252;-81
2022/01/16 10:04:40;;;;;;;50.23;25.93;;;5.20;99.90;;;;;;5089080;28;20233;-81
2022/01/16 10:07:10;;;;;;;53.73;26.73;;;5.20;99.90;;;;;;5086539;28;20201;-81
2022/01/16 10:09:39;;;;;;;53.77;26.30;;;5.30;99.90;;;;;;5090698;28;20317;-81
2022/01/16 10:12:16;;;;;;;53.17;26.00;;;5.30;99.90;;;;;;5089099;28;20197;-81
2022/01/16 10:14:49;;;;;;;49.70;25.30;;;5.30;99.90;;;;;;5087742;28;20203;-83
2022/01/16 10:17:22;;;;;;;47.07;25.20;;;5.40;99.90;;;;;;5091202;28;20318;-80
2022/01/16 10:20:01;;;;;;;53.87;24.93;;;5.50;99.90;;;;;;5097324;28;20214;-81
2022/01/16 10:22:46;;;;;;;49.63;24.73;;;5.50;99.90;;;;;;5091950;28;20198;-82
2022/01/16 10:25:14;;;;;;;44.53;23.00;;;5.50;99.90;;;;;;5078927;28;20195;-82
2022/01/16 10:27:45;;;;;;;47.67;24.47;;;5.50;99.90;;;;;;5075070;28;20739;-81
2022/01/16 10:30:15;;;;;;;43.27;22.77;;;5.60;99.90;;;;;;5097321;28;20232;-82
2022/01/16 10:32:44;;;;;;;43.37;22.57;;;5.60;99.90;;;;;;5066280;28;20957;-81
2022/01/16 10:35:17;;;;;;;41.63;22.20;;;5.60;99.90;;;;;;5076524;28;20198;-81
2022/01/16 10:37:50;;;;;;;45.33;22.33;;;5.70;99.90;;;;;;5090133;28;20274;-81
2022/01/16 10:40:20;;;;;;;46.23;22.20;;;5.70;99.90;;;;;;5084601;28;20884;-81
2022/01/16 10:42:55;;;;;;;43.40;21.90;;;5.80;99.90;;;;;;5092603;28;20210;-81
2022/01/16 10:45:28;;;;;;;42.40;20.93;;;5.80;99.90;;;;;;5072730;28;20234;-82
2022/01/16 10:48:00;;;;;;;42.87;22.07;;;5.80;99.90;;;;;;5090530;28;20221;-81
2022/01/16 10:50:38;;;;;;;41.47;20.43;;;5.80;99.90;;;;;;5087433;28;20256;-81
2022/01/16 10:53:15;;;;;;;40.60;21.07;;;5.90;99.90;;;;;;5089203;28;20295;-81
2022/01/16 10:56:00;;;;;;;44.50;20.83;;;5.90;99.90;;;;;;5096164;28;20214;-82
2022/01/16 10:58:38;;;;;;;44.77;21.27;;;5.90;99.90;;;;;;5098777;28;20269;-82
2022/01/16 11:01:10;;;;;;;45.03;22.97;;;6.00;99.90;;;;;;5099436;28;20264;-81
2022/01/16 11:03:59;;;;;;;47.67;21.87;;;6.00;99.90;;;;;;5078554;28;20228;-83
2022/01/16 11:06:28;;;;;;;46.00;23.83;;;6.00;99.90;;;;;;5090016;28;20217;-81
2022/01/16 11:08:57;;;;;;;53.50;25.23;;;6.10;99.90;;;;;;5093193;28;20257;-82
2022/01/16 11:11:24;;;;;;;53.40;24.17;;;6.20;99.90;;;;;;5092158;28;20206;-83
2022/01/16 11:13:54;;;;;;;44.27;23.67;;;6.20;99.90;;;;;;5090017;28;20202;-81
2022/01/16 11:16:23;;;;;;;53.20;24.13;;;6.20;99.90;;;;;;5094372;28;20649;-80
2022/01/16 11:18:51;;;;;;;56.70;27.77;;;6.20;99.90;;;;;;5098546;28;20299;-81
2022/01/16 11:21:30;;;;;;;61.80;25.07;;;6.20;99.90;;;;;;5089273;28;20203;-83
2022/01/16 11:24:22;;;;;;;58.33;27.17;;;6.30;99.90;;;;;;5088370;28;20429;-80
2022/01/16 11:26:51;;;;;;;64.47;28.00;;;6.40;99.90;;;;;;5085396;28;20569;-81
2022/01/16 11:29:18;;;;;;;59.23;28.63;;;6.40;99.90;;;;;;5080565;28;20206;-81
2022/01/16 11:31:49;;;;;;;62.23;28.37;;;6.50;99.90;;;;;;5081909;28;20661;-82
2022/01/16 11:34:16;;;;;;;61.03;27.07;;;6.50;99.90;;;;;;5081581;28;20203;-81
2022/01/16 11:36:44;;;;;;;65.47;30.40;;;6.50;99.90;;;;;;5081395;28;20204;-80
2022/01/16 11:39:12;;;;;;;69.07;30.97;;;6.50;99.90;;;;;;5086875;28;20855;-79
2022/01/16 11:41:51;;;;;;;60.83;28.20;;;6.60;99.90;;;;;;5086989;28;20207;-81
2022/01/16 11:44:30;;;;;;;66.43;29.57;;;6.60;99.90;;;;;;5073187;28;20350;-81
2022/01/16 11:47:06;;;;;;;62.03;27.37;;;6.60;99.90;;;;;;5088626;28;20219;-80
2022/01/16 11:49:42;;;;;;;63.83;28.17;;;6.60;99.90;;;;;;5076352;28;20211;-80
2022/01/16 11:52:21;;;;;;;61.10;28.30;;;7.10;99.90;;;;;;5089350;28;20906;-79
2022/01/16 11:54:50;;;;;;;64.20;27.90;;;6.70;99.90;;;;;;5079864;28;20225;-80
2022/01/16 11:57:28;;;;;;;67.13;27.97;;;6.70;99.90;;;;;;5086654;28;20195;-80
2022/01/16 12:00:10;;;;;;;68.80;30.27;;;6.70;99.90;;;;;;5072233;28;20294;-81
2022/01/16 12:02:39;;;;;;;82.33;30.50;;;6.70;99.90;;;;;;5082112;28;20219;-80
2022/01/16 12:05:07;;;;;;;66.73;29.77;;;6.70;99.90;;;;;;5091273;28;20313;-80
2022/01/16 12:07:34;;;;;;;69.23;30.17;;;6.70;99.90;;;;;;5090974;28;20594;-79
2022/01/16 12:10:02;;;;;;;71.17;27.97;;;6.70;99.90;;;;;;5090012;28;20550;-81
2022/01/16 12:12:31;;;;;;;75.57;30.47;;;6.70;99.90;;;;;;5071561;28;20668;-80
2022/01/16 12:15:03;;;;;;;72.63;31.27;;;6.70;99.90;;;;;;5086191;28;20199;-82
2022/01/16 12:17:40;;;;;;;70.67;30.27;;;6.80;99.90;;;;;;5095789;28;20229;-80
2022/01/16 12:20:17;;;;;;;72.50;29.40;;;6.80;99.90;;;;;;5075703;28;20602;-81
2022/01/16 12:22:55;;;;;;;68.97;29.70;;;6.80;99.90;;;;;;5086029;28;20264;-79
2022/01/16 12:25:51;;;;;;;74.20;29.37;;;6.80;99.90;;;;;;5087097;28;20200;-80
2022/01/16 12:28:25;;;;;;;72.40;28.80;;;6.80;99.90;;;;;;5070778;28;20198;-80
2022/01/16 12:30:59;;;;;;;75.60;28.10;;;6.80;99.90;;;;;;5069693;28;20206;-80
2022/01/16 12:33:42;;;;;;;76.87;29.97;;;6.80;99.90;;;;;;5086824;28;20212;-79
2022/01/16 12:36:33;;;;;;;81.27;33.03;;;6.80;99.90;;;;;;5088236;28;20200;-80
2022/01/16 12:39:11;;;;;;;78.90;30.83;;;6.80;99.90;;;;;;5070186;28;20220;-80
2022/01/16 12:41:45;;;;;;;74.20;30.57;;;6.70;99.90;;;;;;5088818;28;20207;-80
2022/01/16 12:44:16;;;;;;;79.77;31.83;;;6.70;99.90;;;;;;5091951;28;20629;-79
2022/01/16 12:46:51;;;;;;;74.67;30.90;;;6.70;99.90;;;;;;5073558;28;20296;-80
2022/01/16 12:49:26;;;;;;;78.70;31.17;;;6.70;99.90;;;;;;5090996;28;20200;-80
2022/01/16 12:51:56;;;;;;;75.37;31.13;;;6.80;99.90;;;;;;5086260;28;20291;-79
2022/01/16 12:54:28;;;;;;;88.37;29.93;;;6.80;99.90;;;;;;5082015;28;20203;-79
2022/01/16 12:56:59;;;;;;;83.73;30.70;;;6.80;99.90;;;;;;5089541;28;20212;-77
2022/01/16 12:59:43;;;;;;;83.27;31.23;;;6.80;99.90;;;;;;5089885;28;20581;-80
2022/01/16 13:02:11;;;;;;;79.33;30.00;;;6.70;99.90;;;;;;5091127;28;20702;-78
2022/01/16 13:04:39;;;;;;;77.03;29.10;;;6.80;99.90;;;;;;5093111;28;20223;-79
2022/01/16 13:07:26;;;;;;;80.00;29.33;;;7.00;99.90;;;;;;5091637;28;20286;-82
2022/01/16 13:09:52;;;;;;;74.17;28.67;;;6.80;99.90;;;;;;5077286;28;20260;-80
2022/01/16 13:12:21;;;;;;;79.87;30.07;;;6.80;99.90;;;;;;5094240;28;20642;-78
2022/01/16 13:14:48;;;;;;;91.23;29.97;;;6.80;99.90;;;;;;5086459;28;20253;-79
2022/01/16 13:17:16;;;;;;;85.37;32.73;;;6.80;99.90;;;;;;5083242;28;20252;-79
2022/01/16 13:22:23;;;;;;;90.50;31.73;;;6.80;99.90;;;;;;5086296;28;20749;-80
2022/01/16 13:25:03;;;;;;;80.07;31.10;;;6.80;99.90;;;;;;5084790;28;20777;-80
2022/01/16 13:27:37;;;;;;;92.27;33.53;;;6.80;99.90;;;;;;5084139;28;20206;-79
2022/01/16 13:30:27;;;;;;;93.73;32.80;;;6.80;99.90;;;;;;5088083;28;20202;-79